sensor_id;sensor_type;location;lat;lon;timestamp;temperature;humidity
15013;DHT22;7603;49.432;11.418;2023-07-22T00:02:23;13.70;99.90
15013;DHT22;7603;49.432;11.418;2023-07-22T00:04:49;13.70;99.90
15013;DHT22;7603;49.432;11.418;2023-07-22T00:07:15;13.80;99.90
15013;DHT22;7603;49.432;11.418;2023-07-22T00:09:42;13.80;99.90
15013;DHT22;7603;49.432;11.418;2023-07-22T00:12:08;13.90;99.90
15013;DHT22;7603;49.432;11.418;2023-07-22T00:14:38;14.00;99.90
15013;DHT22;7603;49.432;11.418;2023-07-22T00:17:04;14.00;99.90
15013;DHT22;7603;49.432;11.418;2023-07-22T00:19:30;14.00;99.90
15013;DHT22;7603;49.432;11.418;2023-07-22T00:21:56;14.00;99.90
15013;DHT22;7603;49.432;11.418;2023-07-22T00:24:21;14.00;99.90
15013;DHT22;7603;49.432;11.418;2023-07-22T00:26:47;14.00;99.90
15013;DHT22;7603;49.432;11.418;2023-07-22T00:29:15;13.90;99.90
15013;DHT22;7603;49.432;11.418;2023-07-22T00:31:41;13.80;99.90
15013;DHT22;7603;49.432;11.418;2023-07-22T00:34:06;13.80;99.90
15013;DHT22;7603;49.432;11.418;2023-07-22T00:36:32;13.70;99.90
15013;DHT22;7603;49.432;11.418;2023-07-22T00:38:58;13.70;99.90
15013;DHT22;7603;49.432;11.418;2023-07-22T00:41:23;13.70;99.90
15013;DHT22;7603;49.432;11.418;2023-07-22T00:43:49;13.70;99.90
15013;DHT22;7603;49.432;11.418;2023-07-22T00:46:14;13.70;99.90
15013;DHT22;7603;49.432;11.418;2023-07-22T00:48:40;13.60;99.90
15013;DHT22;7603;49.432;11.418;2023-07-22T00:51:06;13.60;99.90
15013;DHT22;7603;49.432;11.418;2023-07-22T00:53:32;13.50;99.90
15013;DHT22;7603;49.432;11.418;2023-07-22T00:55:57;13.40;99.90
15013;DHT22;7603;49.432;11.418;2023-07-22T00:58:23;13.30;99.90
15013;DHT22;7603;49.432;11.418;2023-07-22T01:00:48;13.30;99.90
15013;DHT22;7603;49.432;11.418;2023-07-22T01:03:14;13.20;99.90
15013;DHT22;7603;49.432;11.418;2023-07-22T01:05:40;13.20;99.90
15013;DHT22;7603;49.432;11.418;2023-07-22T01:08:07;13.10;99.90
15013;DHT22;7603;49.432;11.418;2023-07-22T01:10:32;13.10;99.90
15013;DHT22;7603;49.432;11.418;2023-07-22T01:12:58;13.00;99.90
15013;DHT22;7603;49.432;11.418;2023-07-22T01:15:25;13.00;99.90
15013;DHT22;7603;49.432;11.418;2023-07-22T01:17:51;13.00;99.90
15013;DHT22;7603;49.432;11.418;2023-07-22T01:20:17;12.90;99.90
15013;DHT22;7603;49.432;11.418;2023-07-22T01:22:50;12.90;99.90
15013;DHT22;7603;49.432;11.418;2023-07-22T01:25:16;12.80;99.90
15013;DHT22;7603;49.432;11.418;2023-07-22T01:27:43;12.90;99.90
15013;DHT22;7603;49.432;11.418;2023-07-22T01:30:09;12.80;99.90
15013;DHT22;7603;49.432;11.418;2023-07-22T01:32:35;12.80;99.90
15013;DHT22;7603;49.432;11.418;2023-07-22T01:35:01;12.80;99.90
15013;DHT22;7603;49.432;11.418;2023-07-22T01:37:27;12.80;99.90
15013;DHT22;7603;49.432;11.418;2023-07-22T01:39:53;12.70;99.90
15013;DHT22;7603;49.432;11.418;2023-07-22T01:42:20;12.70;99.90
15013;DHT22;7603;49.432;11.418;2023-07-22T01:44:46;12.70;99.90
15013;DHT22;7603;49.432;11.418;2023-07-22T01:47:12;12.70;99.90
15013;DHT22;7603;49.432;11.418;2023-07-22T01:49:37;12.60;99.90
15013;DHT22;7603;49.432;11.418;2023-07-22T01:52:03;12.60;99.90
15013;DHT22;7603;49.432;11.418;2023-07-22T01:54:29;12.60;99.90
15013;DHT22;7603;49.432;11.418;2023-07-22T01:56:54;12.50;99.90
15013;DHT22;7603;49.432;11.418;2023-07-22T01:59:20;12.50;99.90
15013;DHT22;7603;49.432;11.418;2023-07-22T02:01:46;12.50;99.90
15013;DHT22;7603;49.432;11.418;2023-07-22T02:04:13;12.40;99.90
15013;DHT22;7603;49.432;11.418;2023-07-22T02:06:38;12.40;99.90
15013;DHT22;7603;49.432;11.418;2023-07-22T02:09:04;12.40;99.90
15013;DHT22;7603;49.432;11.418;2023-07-22T02:11:34;12.30;99.90
15013;DHT22;7603;49.432;11.418;2023-07-22T02:14:00;12.30;99.90
15013;DHT22;7603;49.432;11.418;2023-07-22T02:16:26;12.30;99.90
15013;DHT22;7603;49.432;11.418;2023-07-22T02:18:51;12.30;99.90
15013;DHT22;7603;49.432;11.418;2023-07-22T02:21:17;12.30;99.90
15013;DHT22;7603;49.432;11.418;2023-07-22T02:23:43;12.20;99.90
15013;DHT22;7603;49.432;11.418;2023-07-22T02:26:08;12.20;99.90
15013;DHT22;7603;49.432;11.418;2023-07-22T02:28:34;12.10;99.90
15013;DHT22;7603;49.432;11.418;2023-07-22T02:31:02;12.10;99.90
15013;DHT22;7603;49.432;11.418;2023-07-22T02:33:30;12.00;99.90
15013;DHT22;7603;49.432;11.418;2023-07-22T02:35:56;12.00;99.90
15013;DHT22;7603;49.432;11.418;2023-07-22T02:38:22;11.90;99.90
15013;DHT22;7603;49.432;11.418;2023-07-22T02:40:47;11.90;99.90
15013;DHT22;7603;49.432;11.418;2023-07-22T02:43:13;11.90;99.90
15013;DHT22;7603;49.432;11.418;2023-07-22T02:45:39;11.80;99.90
15013;DHT22;7603;49.432;11.418;2023-07-22T02:48:04;11.80;99.90
15013;DHT22;7603;49.432;11.418;2023-07-22T02:50:30;11.70;99.90
15013;DHT22;7603;49.432;11.418;2023-07-22T02:52:56;11.70;99.90
15013;DHT22;7603;49.432;11.418;2023-07-22T02:55:22;11.60;99.90
15013;DHT22;7603;49.432;11.418;2023-07-22T02:57:49;11.60;99.90
15013;DHT22;7603;49.432;11.418;2023-07-22T03:00:17;11.50;99.90
15013;DHT22;7603;49.432;11.418;2023-07-22T03:02:49;11.50;99.90
15013;DHT22;7603;49.432;11.418;2023-07-22T03:05:15;11.40;99.90
15013;DHT22;7603;49.432;11.418;2023-07-22T03:07:41;11.40;99.90
15013;DHT22;7603;49.432;11.418;2023-07-22T03:10:08;11.30;99.90
15013;DHT22;7603;49.432;11.418;2023-07-22T03:12:34;11.30;99.90
15013;DHT22;7603;49.432;11.418;2023-07-22T03:15:00;11.20;99.90
15013;DHT22;7603;49.432;11.418;2023-07-22T03:17:26;11.20;99.90
15013;DHT22;7603;49.432;11.418;2023-07-22T03:19:51;11.00;99.90
15013;DHT22;7603;49.432;11.418;2023-07-22T03:22:17;11.00;99.90
15013;DHT22;7603;49.432;11.418;2023-07-22T03:24:44;11.00;99.90
15013;DHT22;7603;49.432;11.418;2023-07-22T03:27:11;10.90;99.90
15013;DHT22;7603;49.432;11.418;2023-07-22T03:29:37;10.90;99.90
15013;DHT22;7603;49.432;11.418;2023-07-22T03:32:03;10.90;99.90
15013;DHT22;7603;49.432;11.418;2023-07-22T03:34:30;10.90;99.90
15013;DHT22;7603;49.432;11.418;2023-07-22T03:36:55;10.90;99.90
15013;DHT22;7603;49.432;11.418;2023-07-22T03:39:22;10.80;99.90
15013;DHT22;7603;49.432;11.418;2023-07-22T03:41:47;10.80;99.90
15013;DHT22;7603;49.432;11.418;2023-07-22T03:44:13;10.80;99.90
15013;DHT22;7603;49.432;11.418;2023-07-22T03:46:39;10.80;99.90
15013;DHT22;7603;49.432;11.418;2023-07-22T03:49:05;10.70;99.90
15013;DHT22;7603;49.432;11.418;2023-07-22T03:51:31;10.80;99.90
15013;DHT22;7603;49.432;11.418;2023-07-22T03:53:57;10.70;99.90
15013;DHT22;7603;49.432;11.418;2023-07-22T03:56:23;10.70;99.90
15013;DHT22;7603;49.432;11.418;2023-07-22T03:58:51;10.80;99.90
15013;DHT22;7603;49.432;11.418;2023-07-22T04:01:17;10.80;99.90
15013;DHT22;7603;49.432;11.418;2023-07-22T04:03:43;10.80;99.90
15013;DHT22;7603;49.432;11.418;2023-07-22T04:06:09;10.80;99.90
15013;DHT22;7603;49.432;11.418;2023-07-22T04:08:34;10.80;99.90
15013;DHT22;7603;49.432;11.418;2023-07-22T04:11:00;10.80;99.90
15013;DHT22;7603;49.432;11.418;2023-07-22T04:13:26;10.80;99.90
15013;DHT22;7603;49.432;11.418;2023-07-22T04:15:52;10.90;99.90
15013;DHT22;7603;49.432;11.418;2023-07-22T04:18:19;11.00;99.90
15013;DHT22;7603;49.432;11.418;2023-07-22T04:20:45;11.00;99.90
15013;DHT22;7603;49.432;11.418;2023-07-22T04:23:12;11.00;99.90
15013;DHT22;7603;49.432;11.418;2023-07-22T04:25:41;11.10;99.90
15013;DHT22;7603;49.432;11.418;2023-07-22T04:28:07;11.20;99.90
15013;DHT22;7603;49.432;11.418;2023-07-22T04:30:34;11.20;99.90
15013;DHT22;7603;49.432;11.418;2023-07-22T04:33:00;11.30;99.90
15013;DHT22;7603;49.432;11.418;2023-07-22T04:35:25;11.40;99.90
15013;DHT22;7603;49.432;11.418;2023-07-22T04:37:51;11.50;99.90
15013;DHT22;7603;49.432;11.418;2023-07-22T04:40:16;11.50;99.90
15013;DHT22;7603;49.432;11.418;2023-07-22T04:42:44;11.60;99.90
15013;DHT22;7603;49.432;11.418;2023-07-22T04:45:10;11.70;99.90
15013;DHT22;7603;49.432;11.418;2023-07-22T04:47:39;11.80;99.90
15013;DHT22;7603;49.432;11.418;2023-07-22T04:50:05;11.90;99.90
15013;DHT22;7603;49.432;11.418;2023-07-22T04:52:35;12.10;99.90
15013;DHT22;7603;49.432;11.418;2023-07-22T04:55:02;12.20;99.90
15013;DHT22;7603;49.432;11.418;2023-07-22T04:57:35;12.50;99.90
15013;DHT22;7603;49.432;11.418;2023-07-22T05:00:02;12.70;99.90
15013;DHT22;7603;49.432;11.418;2023-07-22T05:02:32;13.00;99.90
15013;DHT22;7603;49.432;11.418;2023-07-22T05:04:58;13.30;99.90
15013;DHT22;7603;49.432;11.418;2023-07-22T05:07:23;13.60;99.90
15013;DHT22;7603;49.432;11.418;2023-07-22T05:09:50;13.80;99.90
15013;DHT22;7603;49.432;11.418;2023-07-22T05:12:17;14.10;99.90
15013;DHT22;7603;49.432;11.418;2023-07-22T05:14:44;14.30;99.90
15013;DHT22;7603;49.432;11.418;2023-07-22T05:17:09;14.50;99.90
15013;DHT22;7603;49.432;11.418;2023-07-22T05:19:35;14.60;99.90
15013;DHT22;7603;49.432;11.418;2023-07-22T05:22:00;14.70;99.90
15013;DHT22;7603;49.432;11.418;2023-07-22T05:24:26;14.90;99.90
15013;DHT22;7603;49.432;11.418;2023-07-22T05:26:52;14.90;99.90
15013;DHT22;7603;49.432;11.418;2023-07-22T05:29:17;15.00;99.90
15013;DHT22;7603;49.432;11.418;2023-07-22T05:31:43;15.20;99.90
15013;DHT22;7603;49.432;11.418;2023-07-22T05:34:09;15.20;99.90
15013;DHT22;7603;49.432;11.418;2023-07-22T05:36:35;15.30;99.90
15013;DHT22;7603;49.432;11.418;2023-07-22T05:39:01;15.40;99.90
15013;DHT22;7603;49.432;11.418;2023-07-22T05:41:26;15.50;99.90
15013;DHT22;7603;49.432;11.418;2023-07-22T05:43:52;15.60;99.90
15013;DHT22;7603;49.432;11.418;2023-07-22T05:46:17;15.70;99.90
15013;DHT22;7603;49.432;11.418;2023-07-22T05:48:43;15.80;99.90
15013;DHT22;7603;49.432;11.418;2023-07-22T05:51:09;15.90;99.90
15013;DHT22;7603;49.432;11.418;2023-07-22T05:53:35;16.00;99.90
15013;DHT22;7603;49.432;11.418;2023-07-22T05:56:01;16.10;99.90
15013;DHT22;7603;49.432;11.418;2023-07-22T05:58:26;16.30;99.90
15013;DHT22;7603;49.432;11.418;2023-07-22T06:00:53;16.50;99.90
15013;DHT22;7603;49.432;11.418;2023-07-22T06:03:19;16.60;99.90
15013;DHT22;7603;49.432;11.418;2023-07-22T06:05:46;16.80;99.90
15013;DHT22;7603;49.432;11.418;2023-07-22T06:08:12;16.90;99.90
15013;DHT22;7603;49.432;11.418;2023-07-22T06:10:39;17.00;99.90
15013;DHT22;7603;49.432;11.418;2023-07-22T06:13:05;17.00;99.90
15013;DHT22;7603;49.432;11.418;2023-07-22T06:15:30;17.10;99.90
15013;DHT22;7603;49.432;11.418;2023-07-22T06:17:56;17.20;99.90
15013;DHT22;7603;49.432;11.418;2023-07-22T06:20:21;17.30;99.90
15013;DHT22;7603;49.432;11.418;2023-07-22T06:22:47;17.50;99.90
15013;DHT22;7603;49.432;11.418;2023-07-22T06:25:13;17.70;99.90
15013;DHT22;7603;49.432;11.418;2023-07-22T06:27:38;17.90;99.90
15013;DHT22;7603;49.432;11.418;2023-07-22T06:30:04;18.00;99.90
15013;DHT22;7603;49.432;11.418;2023-07-22T06:32:30;18.10;99.90
15013;DHT22;7603;49.432;11.418;2023-07-22T06:34:57;18.20;99.90
15013;DHT22;7603;49.432;11.418;2023-07-22T06:37:23;18.40;99.90
15013;DHT22;7603;49.432;11.418;2023-07-22T06:39:49;18.50;99.90
15013;DHT22;7603;49.432;11.418;2023-07-22T06:42:15;18.70;99.90
15013;DHT22;7603;49.432;11.418;2023-07-22T06:44:41;18.80;99.90
15013;DHT22;7603;49.432;11.418;2023-07-22T06:47:06;18.80;99.90
15013;DHT22;7603;49.432;11.418;2023-07-22T06:49:32;18.80;99.60
15013;DHT22;7603;49.432;11.418;2023-07-22T06:51:58;18.80;99.40
15013;DHT22;7603;49.432;11.418;2023-07-22T06:54:23;18.80;98.90
15013;DHT22;7603;49.432;11.418;2023-07-22T06:56:49;18.90;98.00
15013;DHT22;7603;49.432;11.418;2023-07-22T06:59:14;18.90;97.60
15013;DHT22;7603;49.432;11.418;2023-07-22T07:01:40;19.00;97.50
15013;DHT22;7603;49.432;11.418;2023-07-22T07:04:06;19.10;97.50
15013;DHT22;7603;49.432;11.418;2023-07-22T07:06:32;19.30;96.60
15013;DHT22;7603;49.432;11.418;2023-07-22T07:08:59;19.50;95.20
15013;DHT22;7603;49.432;11.418;2023-07-22T07:11:28;19.60;93.80
15013;DHT22;7603;49.432;11.418;2023-07-22T07:13:55;19.60;92.60
15013;DHT22;7603;49.432;11.418;2023-07-22T07:16:28;19.60;92.40
15013;DHT22;7603;49.432;11.418;2023-07-22T07:18:55;19.60;92.00
15013;DHT22;7603;49.432;11.418;2023-07-22T07:21:21;19.60;90.90
15013;DHT22;7603;49.432;11.418;2023-07-22T07:23:48;19.70;90.90
15013;DHT22;7603;49.432;11.418;2023-07-22T07:26:14;19.70;89.20
15013;DHT22;7603;49.432;11.418;2023-07-22T07:28:40;19.90;88.30
15013;DHT22;7603;49.432;11.418;2023-07-22T07:31:06;20.00;87.50
15013;DHT22;7603;49.432;11.418;2023-07-22T07:33:32;20.00;88.20
15013;DHT22;7603;49.432;11.418;2023-07-22T07:35:58;20.20;87.90
15013;DHT22;7603;49.432;11.418;2023-07-22T07:38:24;20.40;87.10
15013;DHT22;7603;49.432;11.418;2023-07-22T07:40:57;20.70;85.20
15013;DHT22;7603;49.432;11.418;2023-07-22T07:43:23;20.90;83.50
15013;DHT22;7603;49.432;11.418;2023-07-22T07:45:49;21.10;81.90
15013;DHT22;7603;49.432;11.418;2023-07-22T07:48:15;21.40;79.80
15013;DHT22;7603;49.432;11.418;2023-07-22T07:50:41;21.60;78.70
15013;DHT22;7603;49.432;11.418;2023-07-22T07:53:06;21.80;77.70
15013;DHT22;7603;49.432;11.418;2023-07-22T07:55:32;21.90;76.70
15013;DHT22;7603;49.432;11.418;2023-07-22T07:57:58;22.10;75.80
15013;DHT22;7603;49.432;11.418;2023-07-22T08:00:24;22.30;74.10
15013;DHT22;7603;49.432;11.418;2023-07-22T08:02:50;22.40;73.40
15013;DHT22;7603;49.432;11.418;2023-07-22T08:05:15;22.70;73.10
15013;DHT22;7603;49.432;11.418;2023-07-22T08:07:41;22.80;72.70
15013;DHT22;7603;49.432;11.418;2023-07-22T08:10:07;22.90;72.10
15013;DHT22;7603;49.432;11.418;2023-07-22T08:12:33;23.00;72.10
15013;DHT22;7603;49.432;11.418;2023-07-22T08:14:59;23.00;71.90
15013;DHT22;7603;49.432;11.418;2023-07-22T08:17:25;23.20;71.40
15013;DHT22;7603;49.432;11.418;2023-07-22T08:19:51;23.30;71.00
15013;DHT22;7603;49.432;11.418;2023-07-22T08:22:17;23.50;70.70
15013;DHT22;7603;49.432;11.418;2023-07-22T08:24:43;23.60;70.40
15013;DHT22;7603;49.432;11.418;2023-07-22T08:27:09;23.80;69.10
15013;DHT22;7603;49.432;11.418;2023-07-22T08:29:35;23.80;68.30
15013;DHT22;7603;49.432;11.418;2023-07-22T08:32:01;23.90;68.00
15013;DHT22;7603;49.432;11.418;2023-07-22T08:34:27;23.90;67.40
15013;DHT22;7603;49.432;11.418;2023-07-22T08:36:53;23.90;66.80
15013;DHT22;7603;49.432;11.418;2023-07-22T08:39:18;23.90;66.70
15013;DHT22;7603;49.432;11.418;2023-07-22T08:41:49;23.80;66.80
15013;DHT22;7603;49.432;11.418;2023-07-22T08:44:21;23.70;66.70
15013;DHT22;7603;49.432;11.418;2023-07-22T08:46:52;23.60;66.90
15013;DHT22;7603;49.432;11.418;2023-07-22T08:49:21;23.60;67.00
15013;DHT22;7603;49.432;11.418;2023-07-22T08:51:47;23.60;67.00
15013;DHT22;7603;49.432;11.418;2023-07-22T08:54:13;23.70;66.90
15013;DHT22;7603;49.432;11.418;2023-07-22T08:56:39;24.00;66.20
15013;DHT22;7603;49.432;11.418;2023-07-22T08:59:06;24.20;65.10
15013;DHT22;7603;49.432;11.418;2023-07-22T09:01:33;24.50;64.00
15013;DHT22;7603;49.432;11.418;2023-07-22T09:03:59;24.60;62.00
15013;DHT22;7603;49.432;11.418;2023-07-22T09:06:25;24.50;61.20
15013;DHT22;7603;49.432;11.418;2023-07-22T09:08:51;24.50;60.70
15013;DHT22;7603;49.432;11.418;2023-07-22T09:11:19;24.70;60.40
15013;DHT22;7603;49.432;11.418;2023-07-22T09:13:46;24.80;59.70
15013;DHT22;7603;49.432;11.418;2023-07-22T09:16:13;25.00;59.10
15013;DHT22;7603;49.432;11.418;2023-07-22T09:18:39;25.10;58.80
15013;DHT22;7603;49.432;11.418;2023-07-22T09:21:04;25.30;57.10
15013;DHT22;7603;49.432;11.418;2023-07-22T09:23:37;25.40;54.70
15013;DHT22;7603;49.432;11.418;2023-07-22T09:26:14;25.60;54.90
15013;DHT22;7603;49.432;11.418;2023-07-22T09:28:57;26.00;53.60
15013;DHT22;7603;49.432;11.418;2023-07-22T09:31:25;26.40;52.00
15013;DHT22;7603;49.432;11.418;2023-07-22T09:33:51;26.40;51.20
15013;DHT22;7603;49.432;11.418;2023-07-22T09:36:20;26.40;50.70
15013;DHT22;7603;49.432;11.418;2023-07-22T09:38:57;26.70;50.30
15013;DHT22;7603;49.432;11.418;2023-07-22T09:41:28;26.90;49.60
15013;DHT22;7603;49.432;11.418;2023-07-22T09:43:54;27.00;49.20
15013;DHT22;7603;49.432;11.418;2023-07-22T09:46:20;26.90;49.20
15013;DHT22;7603;49.432;11.418;2023-07-22T09:48:46;27.00;49.50
15013;DHT22;7603;49.432;11.418;2023-07-22T09:51:15;27.30;48.60
15013;DHT22;7603;49.432;11.418;2023-07-22T09:53:59;27.10;47.90
15013;DHT22;7603;49.432;11.418;2023-07-22T09:56:25;27.00;48.20
15013;DHT22;7603;49.432;11.418;2023-07-22T09:58:52;26.90;48.10
15013;DHT22;7603;49.432;11.418;2023-07-22T10:01:23;27.00;48.20
15013;DHT22;7603;49.432;11.418;2023-07-22T10:03:54;27.20;47.60
15013;DHT22;7603;49.432;11.418;2023-07-22T10:06:29;27.20;47.10
15013;DHT22;7603;49.432;11.418;2023-07-22T10:08:56;26.80;47.50
15013;DHT22;7603;49.432;11.418;2023-07-22T10:11:23;26.50;47.60
15013;DHT22;7603;49.432;11.418;2023-07-22T10:13:52;26.30;48.70
15013;DHT22;7603;49.432;11.418;2023-07-22T10:16:18;26.10;48.60
15013;DHT22;7603;49.432;11.418;2023-07-22T10:18:45;26.10;48.30
15013;DHT22;7603;49.432;11.418;2023-07-22T10:21:12;26.40;48.50
15013;DHT22;7603;49.432;11.418;2023-07-22T10:23:39;26.80;47.90
15013;DHT22;7603;49.432;11.418;2023-07-22T10:26:05;27.00;47.50
15013;DHT22;7603;49.432;11.418;2023-07-22T10:28:32;27.10;47.00
15013;DHT22;7603;49.432;11.418;2023-07-22T10:30:59;27.30;46.60
15013;DHT22;7603;49.432;11.418;2023-07-22T10:33:25;27.50;46.50
15013;DHT22;7603;49.432;11.418;2023-07-22T10:36:16;27.80;45.50
15013;DHT22;7603;49.432;11.418;2023-07-22T10:38:43;28.40;44.40
15013;DHT22;7603;49.432;11.418;2023-07-22T10:41:16;29.10;43.50
15013;DHT22;7603;49.432;11.418;2023-07-22T10:43:58;30.00;42.40
15013;DHT22;7603;49.432;11.418;2023-07-22T10:46:37;30.80;40.90
15013;DHT22;7603;49.432;11.418;2023-07-22T10:49:13;31.60;40.30
15013;DHT22;7603;49.432;11.418;2023-07-22T10:51:51;33.20;39.00
15013;DHT22;7603;49.432;11.418;2023-07-22T10:54:32;34.80;36.90
15013;DHT22;7603;49.432;11.418;2023-07-22T10:57:03;36.40;32.60
15013;DHT22;7603;49.432;11.418;2023-07-22T10:59:33;36.60;31.90
15013;DHT22;7603;49.432;11.418;2023-07-22T11:02:01;36.10;31.60
15013;DHT22;7603;49.432;11.418;2023-07-22T11:04:27;35.50;31.70
15013;DHT22;7603;49.432;11.418;2023-07-22T11:07:04;34.70;32.20
15013;DHT22;7603;49.432;11.418;2023-07-22T11:11:58;33.70;33.30
15013;DHT22;7603;49.432;11.418;2023-07-22T11:14:26;33.30;33.90
15013;DHT22;7603;49.432;11.418;2023-07-22T11:16:52;33.30;34.10
15013;DHT22;7603;49.432;11.418;2023-07-22T11:19:22;33.30;34.30
15013;DHT22;7603;49.432;11.418;2023-07-22T11:21:50;32.80;34.70
15013;DHT22;7603;49.432;11.418;2023-07-22T11:24:16;32.30;35.40
15013;DHT22;7603;49.432;11.418;2023-07-22T11:26:42;31.60;36.00
15013;DHT22;7603;49.432;11.418;2023-07-22T11:29:09;30.90;37.00
15013;DHT22;7603;49.432;11.418;2023-07-22T11:31:37;30.40;38.10
15013;DHT22;7603;49.432;11.418;2023-07-22T11:34:12;30.30;38.10
15013;DHT22;7603;49.432;11.418;2023-07-22T11:36:37;30.00;38.10
15013;DHT22;7603;49.432;11.418;2023-07-22T11:39:10;29.60;38.80
15013;DHT22;7603;49.432;11.418;2023-07-22T11:41:37;29.30;39.40
15013;DHT22;7603;49.432;11.418;2023-07-22T11:44:05;29.60;39.90
15013;DHT22;7603;49.432;11.418;2023-07-22T11:46:35;30.40;38.40
15013;DHT22;7603;49.432;11.418;2023-07-22T11:49:01;32.00;37.00
15013;DHT22;7603;49.432;11.418;2023-07-22T11:51:28;33.80;35.30
15013;DHT22;7603;49.432;11.418;2023-07-22T11:53:55;35.40;32.80
15013;DHT22;7603;49.432;11.418;2023-07-22T11:56:22;37.10;31.10
15013;DHT22;7603;49.432;11.418;2023-07-22T11:58:52;38.70;29.10
15013;DHT22;7603;49.432;11.418;2023-07-22T12:01:18;39.00;27.70
15013;DHT22;7603;49.432;11.418;2023-07-22T12:03:44;38.90;28.00
15013;DHT22;7603;49.432;11.418;2023-07-22T12:06:11;38.60;28.30
15013;DHT22;7603;49.432;11.418;2023-07-22T12:08:46;38.00;28.20
15013;DHT22;7603;49.432;11.418;2023-07-22T12:11:19;36.90;28.70
15013;DHT22;7603;49.432;11.418;2023-07-22T12:13:46;36.30;29.70
15013;DHT22;7603;49.432;11.418;2023-07-22T12:16:21;37.10;29.40
15013;DHT22;7603;49.432;11.418;2023-07-22T12:18:48;38.30;28.10
15013;DHT22;7603;49.432;11.418;2023-07-22T12:21:14;39.60;26.70
15013;DHT22;7603;49.432;11.418;2023-07-22T12:23:40;40.80;26.40
15013;DHT22;7603;49.432;11.418;2023-07-22T12:26:06;42.20;25.20
15013;DHT22;7603;49.432;11.418;2023-07-22T12:28:32;43.20;24.30
15013;DHT22;7603;49.432;11.418;2023-07-22T12:30:58;43.70;23.80
15013;DHT22;7603;49.432;11.418;2023-07-22T12:33:24;43.70;24.40
15013;DHT22;7603;49.432;11.418;2023-07-22T12:35:50;43.90;24.40
15013;DHT22;7603;49.432;11.418;2023-07-22T12:38:16;44.40;24.20
15013;DHT22;7603;49.432;11.418;2023-07-22T12:40:42;45.40;23.80
15013;DHT22;7603;49.432;11.418;2023-07-22T12:43:07;46.30;23.30
15013;DHT22;7603;49.432;11.418;2023-07-22T12:45:33;47.20;22.90
15013;DHT22;7603;49.432;11.418;2023-07-22T12:47:59;48.00;22.30
15013;DHT22;7603;49.432;11.418;2023-07-22T12:50:25;48.40;21.40
15013;DHT22;7603;49.432;11.418;2023-07-22T12:52:50;47.70;20.50
15013;DHT22;7603;49.432;11.418;2023-07-22T12:55:16;46.00;21.00
15013;DHT22;7603;49.432;11.418;2023-07-22T12:57:42;43.50;22.70
15013;DHT22;7603;49.432;11.418;2023-07-22T13:00:08;42.70;23.40
15013;DHT22;7603;49.432;11.418;2023-07-22T13:02:37;43.30;23.50
15013;DHT22;7603;49.432;11.418;2023-07-22T13:05:03;43.30;22.60
15013;DHT22;7603;49.432;11.418;2023-07-22T13:07:29;42.50;23.00
15013;DHT22;7603;49.432;11.418;2023-07-22T13:09:56;41.40;23.50
15013;DHT22;7603;49.432;11.418;2023-07-22T13:12:27;40.10;24.30
15013;DHT22;7603;49.432;11.418;2023-07-22T13:14:53;38.70;25.20
15013;DHT22;7603;49.432;11.418;2023-07-22T13:17:19;37.60;26.20
15013;DHT22;7603;49.432;11.418;2023-07-22T13:19:45;36.60;27.10
15013;DHT22;7603;49.432;11.418;2023-07-22T13:22:11;36.20;27.70
15013;DHT22;7603;49.432;11.418;2023-07-22T13:24:37;36.70;27.70
15013;DHT22;7603;49.432;11.418;2023-07-22T13:27:03;38.00;27.10
15013;DHT22;7603;49.432;11.418;2023-07-22T13:29:30;39.00;26.40
15013;DHT22;7603;49.432;11.418;2023-07-22T13:31:56;39.50;25.70
15013;DHT22;7603;49.432;11.418;2023-07-22T13:34:22;39.70;25.30
15013;DHT22;7603;49.432;11.418;2023-07-22T13:36:47;39.30;25.50
15013;DHT22;7603;49.432;11.418;2023-07-22T13:39:13;38.40;26.00
15013;DHT22;7603;49.432;11.418;2023-07-22T13:41:39;37.50;26.70
15013;DHT22;7603;49.432;11.418;2023-07-22T13:44:04;36.90;27.00
15013;DHT22;7603;49.432;11.418;2023-07-22T13:46:31;36.50;27.40
15013;DHT22;7603;49.432;11.418;2023-07-22T13:48:56;36.20;27.70
15013;DHT22;7603;49.432;11.418;2023-07-22T13:51:22;36.00;27.90
15013;DHT22;7603;49.432;11.418;2023-07-22T13:53:48;36.10;28.00
15013;DHT22;7603;49.432;11.418;2023-07-22T13:56:13;36.30;28.10
15013;DHT22;7603;49.432;11.418;2023-07-22T13:58:39;37.10;27.60
15013;DHT22;7603;49.432;11.418;2023-07-22T14:01:04;38.30;26.60
15013;DHT22;7603;49.432;11.418;2023-07-22T14:03:30;39.60;25.60
15013;DHT22;7603;49.432;11.418;2023-07-22T14:05:56;40.20;24.70
15013;DHT22;7603;49.432;11.418;2023-07-22T14:08:22;39.70;24.60
15013;DHT22;7603;49.432;11.418;2023-07-22T14:10:48;38.50;25.10
15013;DHT22;7603;49.432;11.418;2023-07-22T14:13:13;37.10;26.10
15013;DHT22;7603;49.432;11.418;2023-07-22T14:15:39;35.70;27.30
15013;DHT22;7603;49.432;11.418;2023-07-22T14:18:05;34.30;28.60
15013;DHT22;7603;49.432;11.418;2023-07-22T14:20:30;33.50;29.40
15013;DHT22;7603;49.432;11.418;2023-07-22T14:22:57;33.00;29.80
15013;DHT22;7603;49.432;11.418;2023-07-22T14:25:22;32.70;30.20
15013;DHT22;7603;49.432;11.418;2023-07-22T14:27:48;32.30;30.70
15013;DHT22;7603;49.432;11.418;2023-07-22T14:30:14;31.90;31.40
15013;DHT22;7603;49.432;11.418;2023-07-22T14:32:40;32.30;31.80
15013;DHT22;7603;49.432;11.418;2023-07-22T14:35:06;32.90;30.80
15013;DHT22;7603;49.432;11.418;2023-07-22T14:37:31;33.10;29.90
15013;DHT22;7603;49.432;11.418;2023-07-22T14:39:57;33.00;30.00
15013;DHT22;7603;49.432;11.418;2023-07-22T14:42:23;32.60;30.50
15013;DHT22;7603;49.432;11.418;2023-07-22T14:44:48;32.10;31.10
15013;DHT22;7603;49.432;11.418;2023-07-22T14:47:14;31.20;31.90
15013;DHT22;7603;49.432;11.418;2023-07-22T14:49:40;30.50;33.30
15013;DHT22;7603;49.432;11.418;2023-07-22T14:52:06;30.10;34.10
15013;DHT22;7603;49.432;11.418;2023-07-22T14:54:33;29.80;34.80
15013;DHT22;7603;49.432;11.418;2023-07-22T14:56:58;29.50;34.60
15013;DHT22;7603;49.432;11.418;2023-07-22T14:59:24;29.40;35.10
15013;DHT22;7603;49.432;11.418;2023-07-22T15:01:51;30.00;35.20
15013;DHT22;7603;49.432;11.418;2023-07-22T15:04:18;32.00;34.00
15013;DHT22;7603;49.432;11.418;2023-07-22T15:06:43;34.90;31.40
15013;DHT22;7603;49.432;11.418;2023-07-22T15:09:09;37.90;29.00
15013;DHT22;7603;49.432;11.418;2023-07-22T15:11:36;40.10;26.80
15013;DHT22;7603;49.432;11.418;2023-07-22T15:14:03;42.20;25.10
15013;DHT22;7603;49.432;11.418;2023-07-22T15:16:29;43.90;24.10
15013;DHT22;7603;49.432;11.418;2023-07-22T15:18:54;45.00;22.60
15013;DHT22;7603;49.432;11.418;2023-07-22T15:21:23;44.90;21.90
15013;DHT22;7603;49.432;11.418;2023-07-22T15:23:49;45.30;21.90
15013;DHT22;7603;49.432;11.418;2023-07-22T15:26:18;45.70;21.60
15013;DHT22;7603;49.432;11.418;2023-07-22T15:28:43;46.30;21.20
15013;DHT22;7603;49.432;11.418;2023-07-22T15:31:09;46.80;20.90